createdAt,value
2017-09-05T00:00:19.194Z,15.48
2017-09-05T00:01:21.728Z,14.13
2017-09-05T00:02:24.303Z,14.98
2017-09-05T00:03:27.656Z,20.42
2017-09-05T00:04:30.556Z,16.87
2017-09-05T00:05:33.183Z,7.80
2017-09-05T00:06:35.766Z,6.40
2017-09-05T00:23:04.900Z,15.73
2017-09-05T00:24:11.562Z,15.63
2017-09-05T00:25:14.093Z,13.68
2017-09-05T00:26:16.602Z,11.30
2017-09-05T00:27:19.983Z,13.90
2017-09-05T00:28:23.541Z,19.95
2017-09-05T00:29:26.167Z,11.75
2017-09-05T00:30:32.990Z,17.62
2017-09-05T00:31:36.122Z,18.05
2017-09-05T00:32:42.662Z,17.85
2017-09-05T00:33:49.343Z,14.93
2017-09-05T00:34:51.918Z,13.50
2017-09-05T00:36:00.922Z,19.92
2017-09-05T00:37:03.461Z,18.45
2017-09-05T00:38:06.371Z,17.15
2017-09-05T00:39:08.903Z,8.60
2017-09-05T00:40:11.565Z,15.30
2017-09-05T00:41:14.067Z,20.00
2017-09-05T00:42:16.606Z,12.25
2017-09-05T00:43:23.447Z,14.55
2017-09-05T00:44:25.943Z,18.52
2017-09-05T00:45:28.454Z,11.82
2017-09-05T00:46:31.664Z,11.68
2017-09-05T00:47:34.143Z,13.88
2017-09-05T00:48:40.535Z,11.88
2017-09-05T00:49:47.145Z,13.57
2017-09-05T00:50:50.076Z,17.08
2017-09-05T00:51:52.592Z,17.95
2017-09-05T00:52:55.983Z,19.37
2017-09-05T00:53:58.652Z,16.52
2017-09-05T00:55:01.227Z,15.85
2017-09-05T00:56:03.754Z,18.42
2017-09-05T00:57:06.274Z,16.00
2017-09-05T00:58:08.913Z,12.82
2017-09-05T00:59:12.218Z,17.33
2017-09-05T01:00:14.723Z,14.00
2017-09-05T01:01:18.067Z,11.80
2017-09-05T01:02:21.358Z,17.48
2017-09-05T01:03:24.608Z,12.37
2017-09-05T01:04:27.171Z,14.55
2017-09-05T01:05:29.715Z,13.93
2017-09-05T01:06:32.218Z,15.02
2017-09-05T01:07:34.796Z,8.50
2017-09-05T01:08:37.329Z,12.63
2017-09-05T01:09:44.053Z,14.55
2017-09-05T01:10:46.606Z,16.08
2017-09-05T01:11:49.214Z,7.47
2017-09-05T01:12:53.766Z,13.93
2017-09-05T01:13:56.331Z,17.05
2017-09-05T01:14:58.883Z,20.70
2017-09-05T01:16:01.371Z,15.50
2017-09-05T01:17:04.791Z,14.23
2017-09-05T01:18:11.391Z,7.00
2017-09-05T01:19:13.963Z,8.52
2017-09-05T01:21:46.962Z,12.13
2017-09-05T01:22:49.525Z,10.45
2017-09-05T01:23:56.216Z,7.28
2017-09-05T01:24:58.744Z,10.90
2017-09-05T01:26:01.244Z,11.77
2017-09-05T01:27:03.794Z,8.82
2017-09-05T01:28:06.326Z,11.63
2017-09-05T01:29:08.852Z,10.60
2017-09-05T01:30:15.592Z,10.50
2017-09-05T01:31:18.175Z,11.43
2017-09-05T01:32:20.693Z,7.53
2017-09-05T01:33:23.245Z,10.00
2017-09-05T01:34:25.781Z,5.87
2017-09-05T01:35:32.402Z,7.30
2017-09-05T01:36:39.088Z,6.40
2017-09-05T01:37:41.616Z,12.32
2017-09-05T01:38:44.638Z,6.97
2017-09-05T01:39:47.124Z,7.50
2017-09-05T01:40:50.791Z,11.95
2017-09-05T01:41:57.411Z,13.93
2017-09-05T01:43:01.546Z,7.30
2017-09-05T01:44:04.107Z,10.38
2017-09-05T01:45:07.418Z,7.40
2017-09-05T01:46:11.198Z,8.18
2017-09-05T01:47:17.723Z,7.50
2017-09-05T01:48:20.312Z,5.47
2017-09-05T01:49:22.821Z,8.25
2017-09-05T01:50:29.779Z,7.53
2017-09-05T01:51:32.329Z,6.65
2017-09-05T01:52:34.835Z,7.20
2017-09-05T01:53:37.350Z,13.45
2017-09-05T01:54:44.332Z,8.80
2017-09-05T01:55:46.843Z,14.57
2017-09-05T01:56:49.396Z,9.15
2017-09-05T01:57:51.910Z,7.60
2017-09-05T01:58:54.890Z,5.80
2017-09-05T01:59:57.441Z,5.78
2017-09-05T02:01:00.842Z,5.25
2017-09-05T02:02:03.390Z,8.65
2017-09-05T02:03:05.897Z,11.45
2017-09-05T02:04:10.118Z,7.10
2017-09-05T02:05:12.619Z,11.88
2017-09-05T02:06:15.136Z,14.00
2017-09-05T02:07:18.111Z,12.13
2017-09-05T02:08:20.626Z,18.52
2017-09-05T02:09:23.134Z,13.07
2017-09-05T02:10:25.662Z,10.73
2017-09-05T02:11:28.218Z,11.65
2017-09-05T02:12:30.767Z,6.30
2017-09-05T02:13:34.795Z,6.15
2017-09-05T02:14:41.487Z,10.10
2017-09-05T02:15:44.643Z,14.15
2017-09-05T02:16:47.168Z,16.20
2017-09-05T02:26:45.033Z,11.40
2017-09-05T02:27:48.207Z,17.00
2017-09-05T02:28:50.767Z,12.55
2017-09-05T02:31:30.321Z,14.73
2017-09-05T02:32:32.854Z,15.52
2017-09-05T02:33:35.435Z,10.95
2017-09-05T02:34:37.988Z,14.68
2017-09-05T02:35:40.519Z,15.10
2017-09-05T02:36:43.142Z,8.63
2017-09-05T02:37:46.108Z,13.82
2017-09-05T02:38:48.672Z,13.43
2017-09-05T02:39:51.217Z,15.07
2017-09-05T02:40:53.740Z,19.90
2017-09-05T02:41:56.267Z,13.05
2017-09-05T02:42:58.754Z,12.70
2017-09-05T02:44:03.339Z,12.93
2017-09-05T02:59:49.047Z,6.68
2017-09-05T03:00:51.603Z,7.32
2017-09-05T03:01:54.153Z,11.77
2017-09-05T03:02:57.278Z,13.35
2017-09-05T03:45:31.832Z,4.93
2017-09-05T03:46:34.891Z,8.00
2017-09-05T03:57:18.315Z,5.40
2017-09-05T03:59:55.958Z,5.32
2017-09-05T04:29:58.582Z,7.57
2017-09-05T04:31:02.017Z,16.25
2017-09-05T04:32:04.597Z,4.90
2017-09-05T04:33:07.242Z,7.87
2017-09-05T04:34:09.787Z,9.32
2017-09-05T04:35:12.397Z,6.47
2017-09-05T04:36:16.459Z,11.38
2017-09-05T04:37:23.111Z,7.75
2017-09-05T04:38:25.743Z,9.80
2017-09-05T04:39:28.282Z,11.95
2017-09-05T04:40:34.662Z,7.07
2017-09-05T04:41:37.238Z,9.23
2017-09-05T04:42:39.759Z,7.55
2017-09-05T04:43:42.447Z,11.07
2017-09-05T04:44:48.899Z,12.55
2017-09-05T04:45:54.828Z,15.05
2017-09-05T04:46:58.459Z,11.80
2017-09-05T04:48:00.972Z,11.55
2017-09-05T04:49:03.470Z,20.37
2017-09-05T04:50:06.764Z,11.95
2017-09-05T04:51:10.790Z,9.68
2017-09-05T04:52:17.891Z,13.73
2017-09-05T04:53:20.464Z,12.45
2017-09-05T04:54:22.926Z,7.15
2017-09-05T04:55:25.522Z,10.63
2017-09-05T04:56:28.028Z,15.43
2017-09-05T04:57:30.660Z,11.50
2017-09-05T04:58:33.150Z,6.62
2017-09-05T04:59:35.636Z,11.73
2017-09-05T05:00:38.131Z,10.95
2017-09-05T05:01:40.646Z,7.72
2017-09-05T05:02:44.024Z,6.43
2017-09-05T05:03:46.512Z,6.95
2017-09-05T05:04:49.100Z,9.75
2017-09-05T05:05:51.587Z,9.73
2017-09-05T05:06:54.094Z,8.70
2017-09-05T05:07:56.620Z,12.98
2017-09-05T05:08:59.111Z,7.65
2017-09-05T05:10:01.590Z,10.40
2017-09-05T05:11:08.604Z,5.30
2017-09-05T05:12:11.196Z,7.32
2017-09-05T05:13:14.005Z,11.27
2017-09-05T05:14:16.494Z,8.38
2017-09-05T05:15:18.975Z,7.62
2017-09-05T05:16:22.914Z,5.95
2017-09-05T05:17:29.579Z,9.10
2017-09-05T05:18:32.094Z,8.70
2017-09-05T05:19:34.674Z,9.65
2017-09-05T05:20:37.184Z,13.18
2017-09-05T05:21:39.704Z,10.95
2017-09-05T05:22:42.270Z,9.45
2017-09-05T05:23:44.871Z,11.70
2017-09-05T05:24:47.971Z,7.95
2017-09-05T05:25:50.457Z,8.85
2017-09-05T05:26:52.969Z,9.30
2017-09-05T05:27:55.451Z,23.50
2017-09-05T05:28:57.989Z,8.18
2017-09-05T05:30:00.505Z,12.35
2017-09-05T05:31:03.007Z,11.07
2017-09-05T05:32:05.505Z,6.53
2017-09-05T05:33:08.012Z,16.80
2017-09-05T05:34:13.521Z,12.73
2017-09-05T05:35:16.062Z,15.73
2017-09-05T05:36:18.541Z,9.80
2017-09-05T05:37:21.071Z,17.05
2017-09-05T05:38:23.564Z,13.98
2017-09-05T05:39:26.066Z,10.10
2017-09-05T05:40:28.570Z,11.35
2017-09-05T05:41:31.106Z,10.15
2017-09-05T05:42:33.689Z,9.95
2017-09-05T05:43:36.215Z,12.32
2017-09-05T05:44:38.800Z,7.72
2017-09-05T05:45:45.690Z,11.95
2017-09-05T05:46:48.207Z,7.78
2017-09-05T05:47:50.694Z,5.82
2017-09-05T05:48:53.187Z,7.85
2017-09-05T05:49:55.686Z,5.90
2017-09-05T05:50:58.933Z,6.25
2017-09-05T05:52:05.728Z,6.75
2017-09-05T05:53:08.218Z,7.12
2017-09-05T05:54:10.704Z,6.87
2017-09-05T05:55:17.527Z,5.05
2017-09-05T05:56:20.927Z,7.00
2017-09-05T05:57:23.430Z,5.95
2017-09-05T05:58:25.927Z,12.40
2017-09-05T05:59:32.459Z,10.88
2017-09-05T06:00:38.692Z,10.32
2017-09-05T06:01:41.191Z,7.25
2017-09-05T06:02:43.730Z,8.20
2017-09-05T06:03:46.323Z,7.62
2017-09-05T06:04:48.842Z,7.12
2017-09-05T06:05:51.316Z,7.87
2017-09-05T06:06:55.238Z,6.80
2017-09-05T06:07:58.539Z,4.95
2017-09-05T06:09:01.856Z,7.55
2017-09-05T06:10:04.498Z,7.65
2017-09-05T06:11:07.057Z,14.75
2017-09-05T06:12:09.633Z,12.68
2017-09-05T06:13:12.221Z,7.00
2017-09-05T06:14:15.015Z,11.63
2017-09-05T06:15:17.520Z,8.25
2017-09-05T06:16:20.186Z,12.00
2017-09-05T06:17:23.620Z,9.60
2017-09-05T06:18:26.155Z,11.68
2017-09-05T06:19:28.654Z,21.12
2017-09-05T06:20:31.155Z,10.40
2017-09-05T06:21:37.629Z,14.60
2017-09-05T06:22:40.144Z,7.35
2017-09-05T06:23:42.667Z,6.75
2017-09-05T06:24:49.116Z,12.50
2017-09-05T06:25:51.692Z,8.00
2017-09-05T06:26:54.197Z,11.80
2017-09-05T06:27:56.756Z,5.28
2017-09-05T06:29:00.001Z,12.30
2017-09-05T06:30:02.480Z,17.95
2017-09-05T06:31:04.958Z,5.93
2017-09-05T06:32:07.485Z,10.45
2017-09-05T06:33:10.598Z,8.70
2017-09-05T06:34:13.606Z,10.35
2017-09-05T06:35:16.793Z,12.65
2017-09-05T06:36:23.576Z,9.70
2017-09-05T06:37:26.498Z,13.05
2017-09-05T06:38:29.042Z,5.72
2017-09-05T06:39:31.556Z,16.62
2017-09-05T06:40:34.124Z,14.70
2017-09-05T06:41:36.634Z,14.65
2017-09-05T06:42:39.166Z,11.98
2017-09-05T06:43:41.799Z,11.82
2017-09-05T06:44:44.289Z,11.95
2017-09-05T06:45:46.806Z,18.05
2017-09-05T06:46:49.315Z,10.25
2017-09-05T06:47:51.819Z,15.70
2017-09-05T06:48:54.332Z,13.35
2017-09-05T06:49:56.887Z,12.05
2017-09-05T06:50:59.512Z,12.27
2017-09-05T06:52:02.051Z,12.82
2017-09-05T06:53:04.568Z,6.37
2017-09-05T06:54:07.258Z,7.37
2017-09-05T06:55:09.875Z,9.18
2017-09-05T06:56:12.583Z,14.82
2017-09-05T06:57:15.091Z,10.32
2017-09-05T06:58:17.942Z,15.98
2017-09-05T06:59:20.459Z,11.63
2017-09-05T07:00:22.965Z,17.13
2017-09-05T07:01:25.497Z,10.73
2017-09-05T07:02:28.014Z,8.87
2017-09-05T07:03:30.534Z,6.90
2017-09-05T07:04:33.023Z,8.73
2017-09-05T07:05:35.563Z,6.20
2017-09-05T07:06:42.459Z,6.50
2017-09-05T07:07:44.948Z,8.35
2017-09-05T07:08:48.217Z,6.93
2017-09-05T07:09:50.798Z,5.07
2017-09-05T07:10:54.086Z,12.33
2017-09-05T07:11:56.631Z,6.70
2017-09-05T07:12:59.155Z,15.33
2017-09-05T07:14:01.717Z,14.97
2017-09-05T07:15:04.300Z,18.40
2017-09-05T07:16:06.843Z,6.22
2017-09-05T07:17:09.481Z,7.15
2017-09-05T07:18:12.080Z,7.05
2017-09-05T07:19:14.767Z,9.73
2017-09-05T07:20:18.754Z,13.02
2017-09-05T07:21:21.266Z,12.15
2017-09-05T07:22:23.807Z,5.20
2017-09-05T07:23:27.086Z,11.95
2017-09-05T07:24:29.638Z,10.10
2017-09-05T07:25:32.147Z,10.35
2017-09-05T07:26:34.655Z,7.65
2017-09-05T07:27:37.176Z,8.02
2017-09-05T07:28:39.675Z,6.55
2017-09-05T07:29:42.187Z,13.13
2017-09-05T07:30:45.022Z,10.65
2017-09-05T07:31:47.521Z,7.90
2017-09-05T07:32:50.038Z,6.87
2017-09-05T07:33:52.584Z,7.03
2017-09-05T07:34:55.119Z,13.68
2017-09-05T07:35:57.652Z,5.57
2017-09-05T07:37:00.159Z,11.12
2017-09-05T07:38:03.220Z,7.90
2017-09-05T07:39:05.762Z,5.25
2017-09-05T07:40:08.273Z,11.75
2017-09-05T07:41:11.652Z,6.37
2017-09-05T07:42:14.149Z,6.75
2017-09-05T07:43:17.366Z,10.98
2017-09-05T07:44:19.886Z,14.75
2017-09-05T07:45:22.414Z,5.60
2017-09-05T07:46:25.428Z,8.07
2017-09-05T07:47:28.422Z,9.18
2017-09-05T07:48:30.943Z,5.43
2017-09-05T07:49:35.189Z,5.07
2017-09-05T07:50:37.716Z,6.12
2017-09-05T07:51:40.207Z,9.80
2017-09-05T07:52:42.723Z,7.57
2017-09-05T07:53:45.238Z,12.52
2017-09-05T07:54:48.349Z,9.90
2017-09-05T07:55:50.834Z,13.23
2017-09-05T07:56:53.330Z,8.30
2017-09-05T07:57:55.888Z,8.03
2017-09-05T07:58:58.382Z,6.80
2017-09-05T08:00:00.894Z,12.50
2017-09-05T08:01:03.394Z,8.77
2017-09-05T08:02:05.951Z,7.30
2017-09-05T08:03:08.456Z,5.87
2017-09-05T08:04:11.049Z,6.80
2017-09-05T08:05:13.551Z,9.20
2017-09-05T08:06:16.036Z,10.17
2017-09-05T08:07:18.550Z,11.83
2017-09-05T08:08:21.095Z,11.10
2017-09-05T08:09:23.590Z,18.67
2017-09-05T08:10:26.105Z,7.20
2017-09-05T08:11:28.618Z,9.43
2017-09-05T08:12:32.071Z,9.03
2017-09-05T08:13:38.653Z,7.10
2017-09-05T08:14:41.632Z,8.87
2017-09-05T08:15:44.313Z,10.43
2017-09-05T08:16:46.833Z,8.57
2017-09-05T08:17:49.356Z,9.50
2017-09-05T08:18:51.859Z,8.43
2017-09-05T08:19:54.425Z,8.50
2017-09-05T08:20:57.879Z,12.17
2017-09-05T08:22:00.442Z,7.70
2017-09-05T08:23:03.037Z,11.37
2017-09-05T08:24:05.576Z,10.37
2017-09-05T08:25:12.534Z,8.27
2017-09-05T08:26:15.016Z,10.23
2017-09-05T08:27:17.508Z,11.93
2017-09-05T08:28:20.135Z,8.00
2017-09-05T08:29:22.662Z,10.67
2017-09-05T08:30:25.171Z,10.17
2017-09-05T08:31:27.659Z,8.73
2017-09-05T08:32:30.147Z,12.20
2017-09-05T08:33:37.148Z,9.67
2017-09-05T08:34:39.656Z,9.73
2017-09-05T08:35:42.192Z,10.53
2017-09-05T08:36:44.691Z,9.43
2017-09-05T08:37:47.193Z,8.80
2017-09-05T08:38:53.723Z,12.33
2017-09-05T08:39:56.283Z,10.67
2017-09-05T08:40:58.851Z,9.50
2017-09-05T08:42:02.103Z,9.83
2017-09-05T08:43:04.592Z,13.67
2017-09-05T08:44:07.081Z,10.37
2017-09-05T08:45:09.791Z,13.70
2017-09-05T08:46:14.142Z,11.03
2017-09-05T08:47:16.649Z,14.90
2017-09-05T08:48:20.482Z,8.53
2017-09-05T08:49:23.006Z,10.67
2017-09-05T08:50:25.540Z,12.27
2017-09-05T08:51:28.040Z,12.53
2017-09-05T08:52:30.534Z,11.03
2017-09-05T08:53:33.042Z,12.60
2017-09-05T08:54:35.551Z,11.37
2017-09-05T08:55:38.059Z,11.10
2017-09-05T08:56:40.574Z,11.10
2017-09-05T08:57:43.046Z,10.10
2017-09-05T08:58:46.519Z,12.13
2017-09-05T08:59:49.090Z,9.70
2017-09-05T09:00:52.352Z,13.40
2017-09-05T09:01:54.838Z,8.37
2017-09-05T09:02:58.057Z,8.70
2017-09-05T09:04:00.555Z,9.83
2017-09-05T09:05:03.306Z,11.13
2017-09-05T09:06:05.829Z,11.03
2017-09-05T09:07:08.406Z,10.00
2017-09-05T09:08:10.916Z,11.10
2017-09-05T09:09:13.433Z,15.57
2017-09-05T09:10:15.927Z,9.47
2017-09-05T09:11:18.418Z,13.90
2017-09-05T09:12:21.326Z,17.77
2017-09-05T09:13:23.823Z,17.63
2017-09-05T09:14:26.303Z,11.27
2017-09-05T09:15:28.800Z,9.07
2017-09-05T09:16:31.309Z,13.77
2017-09-05T09:17:33.986Z,7.97
2017-09-05T09:18:36.469Z,10.83
2017-09-05T09:19:38.959Z,9.73
2017-09-05T09:20:41.463Z,10.20
2017-09-05T09:21:43.966Z,9.53
2017-09-05T09:22:46.475Z,15.20
2017-09-05T09:23:48.984Z,16.30
2017-09-05T09:24:52.268Z,9.50
2017-09-05T09:25:54.858Z,10.63
2017-09-05T09:26:57.381Z,8.17
2017-09-05T09:27:59.939Z,7.93
2017-09-05T09:29:06.491Z,15.30
2017-09-05T09:30:08.993Z,10.90
2017-09-05T09:31:11.561Z,10.00
2017-09-05T09:32:14.099Z,8.70
2017-09-05T09:33:16.596Z,11.33
2017-09-05T09:34:19.098Z,7.90
2017-09-05T09:35:25.375Z,8.83
2017-09-05T09:36:28.719Z,12.87
2017-09-05T09:37:31.235Z,9.67
2017-09-05T09:38:33.776Z,9.80
2017-09-05T09:39:36.273Z,6.93
2017-09-05T09:40:38.761Z,8.97
2017-09-05T09:41:41.296Z,10.30
2017-09-05T09:42:43.775Z,10.10
2017-09-05T09:43:46.274Z,9.33
2017-09-05T09:44:48.779Z,10.60
2017-09-05T09:45:51.347Z,6.93
2017-09-05T09:46:54.851Z,9.93
2017-09-05T09:47:57.322Z,9.90
2017-09-05T09:48:59.798Z,9.13
2017-09-05T09:50:02.315Z,13.70
2017-09-05T09:51:04.802Z,8.07
2017-09-05T09:52:07.295Z,8.77
2017-09-05T09:53:09.832Z,10.90
2017-09-05T09:54:12.331Z,9.23
2017-09-05T09:55:14.818Z,9.63
2017-09-05T09:56:17.318Z,10.33
2017-09-05T09:57:19.819Z,8.93
2017-09-05T09:58:22.574Z,6.30
2017-09-05T09:59:25.055Z,6.27
2017-09-05T10:00:27.547Z,11.70
2017-09-05T10:01:30.074Z,8.93
2017-09-05T10:02:32.578Z,10.20
2017-09-05T10:03:35.079Z,8.23
2017-09-05T10:04:37.555Z,9.07
2017-09-05T10:05:40.029Z,7.00
2017-09-05T10:06:42.538Z,6.60
2017-09-05T10:07:45.568Z,11.10
2017-09-05T10:08:48.075Z,7.37
2017-09-05T10:09:50.642Z,8.93
2017-09-05T10:10:53.143Z,8.97
2017-09-05T10:11:55.710Z,11.60
2017-09-05T10:12:58.299Z,9.67
2017-09-05T10:14:00.851Z,6.70
2017-09-05T10:15:03.399Z,7.93
2017-09-05T10:16:05.943Z,11.90
2017-09-05T10:17:08.469Z,7.77
2017-09-05T10:18:10.967Z,5.87
2017-09-05T10:19:13.699Z,6.80
2017-09-05T10:20:16.186Z,7.73
2017-09-05T10:21:18.716Z,6.07
2017-09-05T10:22:21.206Z,6.10
2017-09-05T10:23:23.703Z,7.63
2017-09-05T10:24:26.876Z,5.70
2017-09-05T10:25:29.365Z,9.70
2017-09-05T10:26:32.278Z,7.07
2017-09-05T10:27:34.805Z,7.60
2017-09-05T10:28:37.298Z,6.17
2017-09-05T10:29:40.277Z,9.33
2017-09-05T10:30:42.778Z,6.47
2017-09-05T10:31:45.307Z,5.83
2017-09-05T10:32:49.496Z,6.27
2017-09-05T10:33:52.004Z,5.03
2017-09-05T10:34:54.515Z,5.53
2017-09-05T10:35:57.029Z,6.20
2017-09-05T10:36:59.517Z,4.90
2017-09-05T10:38:02.058Z,3.50
2017-09-05T10:39:04.586Z,6.00
2017-09-05T10:40:07.066Z,3.80
2017-09-05T10:41:09.573Z,6.00
2017-09-05T10:42:12.144Z,6.13
2017-09-05T10:43:14.617Z,4.87
2017-09-05T10:44:17.142Z,3.73
2017-09-05T10:45:19.873Z,4.63
2017-09-05T10:46:23.250Z,4.27
2017-09-05T10:47:25.744Z,7.23
2017-09-05T10:48:28.287Z,4.70
2017-09-05T10:49:30.806Z,5.17
2017-09-05T10:50:33.331Z,4.83
2017-09-05T10:51:35.862Z,4.40
2017-09-05T10:52:38.456Z,5.77
2017-09-05T10:53:40.972Z,5.03
2017-09-05T10:54:44.299Z,5.57
2017-09-05T10:55:46.811Z,6.60
2017-09-05T10:56:49.307Z,3.97
2017-09-05T10:57:51.806Z,6.53
2017-09-05T10:58:54.291Z,4.20
2017-09-05T11:00:01.093Z,9.70
2017-09-05T11:01:03.700Z,4.73
2017-09-05T11:02:07.036Z,4.43
2017-09-05T11:03:09.513Z,14.30
2017-09-05T11:04:12.815Z,8.80
2017-09-05T11:05:15.301Z,5.23
2017-09-05T11:06:18.747Z,7.20
2017-09-05T11:07:21.248Z,5.70
2017-09-05T11:08:23.917Z,4.50
2017-09-05T11:09:26.414Z,5.40
2017-09-05T11:10:28.899Z,7.27
2017-09-05T11:11:31.386Z,4.93
2017-09-05T11:12:33.886Z,3.87
2017-09-05T11:13:36.440Z,3.93
2017-09-05T11:14:38.947Z,5.47
2017-09-05T11:15:41.430Z,3.80
2017-09-05T11:16:43.955Z,4.10
2017-09-05T11:17:46.459Z,4.80
2017-09-05T11:18:48.951Z,7.20
2017-09-05T11:19:52.296Z,4.30
2017-09-05T11:20:54.790Z,5.37
2017-09-05T11:21:57.290Z,5.80
2017-09-05T11:23:00.483Z,4.80
2017-09-05T11:24:02.975Z,4.60
2017-09-05T11:25:05.497Z,5.20
2017-09-05T11:26:08.016Z,7.70
2017-09-05T11:27:10.543Z,5.40
2017-09-05T11:28:13.057Z,4.50
2017-09-05T11:29:15.572Z,3.90
2017-09-05T11:30:18.088Z,6.47
2017-09-05T11:31:20.596Z,5.33
2017-09-05T11:32:23.197Z,3.90
2017-09-05T11:33:25.682Z,5.43
2017-09-05T11:34:28.200Z,3.80
2017-09-05T11:35:30.714Z,5.47
2017-09-05T11:36:33.182Z,6.87
2017-09-05T11:37:35.690Z,4.40
2017-09-05T11:38:38.194Z,5.07
2017-09-05T11:39:40.679Z,6.33
2017-09-05T11:40:43.222Z,4.20
2017-09-05T11:41:45.715Z,5.50
2017-09-05T11:42:48.217Z,6.10
2017-09-05T11:43:50.718Z,7.63
2017-09-05T11:44:53.218Z,5.30
2017-09-05T11:45:55.699Z,6.23
2017-09-05T11:46:58.236Z,4.70
2017-09-05T11:48:00.749Z,4.40
2017-09-05T11:49:03.271Z,4.63
2017-09-05T11:50:05.778Z,3.93
2017-09-05T11:51:08.262Z,4.40
2017-09-05T11:52:10.899Z,6.83
2017-09-05T11:53:13.447Z,5.30
2017-09-05T11:54:15.970Z,5.57
2017-09-05T11:55:19.982Z,5.13
2017-09-05T11:56:22.594Z,2.90
2017-09-05T11:57:25.083Z,4.17
2017-09-05T11:58:27.592Z,5.57
2017-09-05T11:59:30.097Z,6.23
2017-09-05T12:00:32.596Z,7.43
2017-09-05T12:01:35.953Z,4.43
2017-09-05T12:02:38.464Z,5.10
2017-09-05T12:03:41.134Z,4.53
2017-09-05T12:04:43.651Z,6.63
2017-09-05T12:05:46.166Z,8.87
2017-09-05T12:06:48.651Z,5.70
2017-09-05T12:07:51.152Z,3.70
2017-09-05T12:08:57.525Z,5.73
2017-09-05T12:10:04.119Z,5.60
2017-09-05T12:11:06.638Z,3.50
2017-09-05T12:12:09.132Z,3.60
2017-09-05T12:13:11.861Z,5.13
2017-09-05T12:14:14.351Z,4.40
2017-09-05T12:15:16.882Z,4.17
2017-09-05T12:16:19.370Z,5.77
2017-09-05T12:17:21.861Z,6.00
2017-09-05T12:18:24.334Z,4.70
2017-09-05T12:19:27.701Z,4.40
2017-09-05T12:20:30.194Z,4.20
2017-09-05T12:21:32.693Z,5.13
2017-09-05T12:22:35.206Z,4.00
2017-09-05T12:23:38.345Z,5.00
2017-09-05T12:24:40.829Z,6.83
2017-09-05T12:25:46.314Z,4.87
2017-09-05T12:26:48.812Z,3.33
2017-09-05T12:27:51.323Z,5.63
2017-09-05T12:28:53.811Z,3.63
2017-09-05T12:29:56.443Z,6.33
2017-09-05T12:30:59.032Z,6.10
2017-09-05T12:32:01.524Z,3.30
2017-09-05T12:33:04.029Z,4.17
2017-09-05T12:34:06.631Z,3.87
2017-09-05T12:35:09.166Z,3.10
2017-09-05T12:36:11.707Z,3.40
2017-09-05T12:37:14.283Z,3.90
2017-09-05T12:38:16.831Z,4.30
2017-09-05T12:39:19.367Z,4.60
2017-09-05T12:40:21.900Z,3.27
2017-09-05T12:41:24.425Z,4.43
2017-09-05T12:42:31.070Z,7.10
2017-09-05T12:43:33.578Z,4.37
2017-09-05T12:44:36.638Z,5.43
2017-09-05T12:45:39.120Z,4.20
2017-09-05T12:46:41.606Z,5.20
2017-09-05T12:47:44.093Z,4.43
2017-09-05T12:48:46.595Z,4.50
2017-09-05T12:49:49.106Z,3.33
2017-09-05T12:50:51.630Z,3.37
2017-09-05T12:51:54.907Z,8.40
2017-09-05T12:52:57.447Z,4.27
2017-09-05T12:54:00.000Z,5.47
2017-09-05T12:55:02.522Z,5.97
2017-09-05T12:56:05.119Z,3.97
2017-09-05T12:57:07.615Z,5.07
2017-09-05T12:58:10.675Z,3.50
2017-09-05T12:59:13.235Z,4.00
2017-09-05T13:00:16.004Z,6.33
2017-09-05T13:01:18.544Z,7.53
2017-09-05T13:02:21.039Z,3.80
2017-09-05T13:03:23.531Z,6.20
2017-09-05T13:04:27.721Z,6.43
2017-09-05T13:05:30.218Z,3.30
2017-09-05T13:06:36.837Z,4.63
2017-09-05T13:07:39.370Z,5.53
2017-09-05T13:08:41.842Z,4.37
2017-09-05T13:09:44.379Z,4.33
2017-09-05T13:10:47.734Z,4.43
2017-09-05T13:11:50.271Z,5.93
2017-09-05T13:12:52.789Z,5.10
2017-09-05T13:13:55.295Z,3.90
2017-09-05T13:14:58.138Z,3.33
2017-09-05T13:16:00.744Z,5.90
2017-09-05T13:17:03.254Z,4.07
2017-09-05T13:18:05.800Z,4.77
2017-09-05T13:19:12.656Z,3.90
2017-09-05T13:20:15.134Z,4.57
2017-09-05T13:21:17.618Z,6.63
2017-09-05T13:22:20.132Z,5.10
2017-09-05T13:23:22.664Z,3.57
2017-09-05T13:24:25.161Z,5.37
2017-09-05T13:25:27.655Z,3.87
2017-09-05T13:26:30.161Z,3.77
2017-09-05T13:27:33.599Z,3.40
2017-09-05T13:28:36.109Z,3.90
2017-09-05T13:29:38.598Z,5.37
2017-09-05T13:30:41.107Z,5.93
2017-09-05T13:31:43.632Z,6.40
2017-09-05T13:32:50.243Z,3.30
2017-09-05T13:33:53.520Z,3.50
2017-09-05T13:34:56.024Z,4.23
2017-09-05T13:35:58.517Z,3.30
2017-09-05T13:37:01.000Z,5.47
2017-09-05T13:38:03.512Z,5.20
2017-09-05T13:39:06.027Z,8.37
2017-09-05T13:40:08.555Z,3.20
2017-09-05T13:41:11.203Z,3.27
2017-09-05T13:42:13.779Z,4.50
2017-09-05T13:43:16.277Z,3.30
2017-09-05T13:44:18.770Z,4.47
2017-09-05T13:45:21.329Z,3.87
2017-09-05T13:46:23.850Z,5.53
2017-09-05T13:47:26.344Z,8.57
2017-09-05T13:48:29.136Z,3.83
2017-09-05T13:49:31.638Z,4.10
2017-09-05T13:50:34.154Z,3.60
2017-09-05T13:51:38.360Z,3.77
2017-09-05T13:52:40.942Z,3.47
2017-09-05T13:53:43.428Z,3.50
2017-09-05T13:54:45.928Z,3.07
2017-09-05T13:55:48.435Z,3.50
2017-09-05T13:56:55.180Z,3.07
2017-09-05T13:57:57.720Z,9.43
2017-09-05T13:59:00.198Z,4.80
2017-09-05T14:00:02.715Z,7.30
2017-09-05T14:01:05.230Z,7.53
2017-09-05T14:02:07.727Z,10.40
2017-09-05T14:03:10.226Z,3.97
2017-09-05T14:04:13.548Z,4.90
2017-09-05T14:05:16.074Z,4.60
2017-09-05T14:06:18.588Z,5.50
2017-09-05T14:07:21.109Z,3.43
2017-09-05T14:08:23.619Z,5.70
2017-09-05T14:09:26.091Z,7.00
2017-09-05T14:10:28.781Z,5.60
2017-09-05T14:11:31.259Z,6.17
2017-09-05T14:12:33.786Z,5.27
2017-09-05T14:13:37.176Z,5.13
2017-09-05T14:14:39.700Z,8.47
2017-09-05T14:15:42.196Z,5.78
2017-09-05T14:16:44.718Z,7.03
2017-09-05T14:17:47.224Z,7.40
2017-09-05T14:18:49.715Z,9.33
2017-09-05T14:19:52.262Z,9.83
2017-09-05T14:20:54.747Z,4.90
2017-09-05T14:21:57.234Z,5.77
2017-09-05T14:22:59.731Z,9.23
2017-09-05T14:24:02.249Z,6.40
2017-09-05T14:25:04.838Z,10.10
2017-09-05T14:26:07.363Z,6.37
2017-09-05T14:27:09.927Z,5.50
2017-09-05T14:28:13.127Z,4.73
2017-09-05T14:29:15.652Z,4.53
2017-09-05T14:30:19.006Z,6.87
2017-09-05T14:31:21.807Z,8.80
2017-09-05T14:32:24.311Z,7.70
2017-09-05T14:33:26.824Z,11.80
2017-09-05T14:34:29.333Z,6.60
2017-09-05T14:35:31.855Z,5.63
2017-09-05T14:36:34.423Z,12.43
2017-09-05T14:37:36.967Z,9.63
2017-09-05T14:38:39.480Z,6.50
2017-09-05T14:39:41.931Z,7.57
2017-09-05T14:40:44.452Z,11.70
2017-09-05T14:41:46.996Z,8.87
2017-09-05T14:42:49.978Z,7.13
2017-09-05T14:43:52.468Z,6.70
2017-09-05T14:44:55.173Z,11.70
2017-09-05T14:45:57.654Z,8.37
2017-09-05T14:47:00.182Z,7.10
2017-09-05T14:48:02.662Z,7.83
2017-09-05T14:49:05.403Z,18.23
2017-09-05T14:50:07.982Z,9.90
2017-09-05T14:51:10.620Z,6.13
2017-09-05T14:52:13.213Z,7.80
2017-09-05T14:53:15.747Z,11.53
2017-09-05T14:54:18.248Z,9.77
2017-09-05T14:55:24.717Z,11.23
2017-09-05T14:56:27.280Z,6.20
2017-09-05T14:57:29.998Z,9.60
2017-09-05T14:58:32.511Z,5.93
2017-09-05T14:59:35.000Z,7.93
2017-09-05T15:00:37.558Z,5.17
2017-09-05T15:01:40.063Z,6.60
2017-09-05T15:02:42.594Z,8.10
2017-09-05T15:03:45.179Z,8.07
2017-09-05T15:04:47.694Z,4.50
2017-09-05T15:05:50.252Z,5.63
2017-09-05T15:06:52.842Z,5.13
2017-09-05T15:07:55.347Z,5.63
2017-09-05T15:08:57.933Z,6.07
2017-09-05T15:10:00.454Z,4.70
2017-09-05T15:11:02.934Z,6.50
2017-09-05T15:12:05.554Z,6.03
2017-09-05T15:13:08.867Z,7.60
2017-09-05T15:14:11.456Z,7.33
2017-09-05T15:15:13.948Z,8.00
2017-09-05T15:16:17.470Z,5.20
2017-09-05T15:17:19.995Z,7.83
2017-09-05T15:18:26.640Z,5.87
2017-09-05T15:19:29.204Z,6.17
2017-09-05T15:20:31.729Z,4.27
2017-09-05T15:21:34.215Z,5.90
2017-09-05T15:22:36.720Z,11.80
2017-09-05T15:23:39.230Z,5.70
2017-09-05T15:24:41.736Z,4.83
2017-09-05T15:25:44.269Z,8.80
2017-09-05T15:26:53.121Z,10.87
2017-09-05T15:27:56.169Z,4.47
2017-09-05T15:28:59.666Z,6.13
2017-09-05T15:30:02.185Z,10.20
2017-09-05T15:31:04.695Z,9.60
2017-09-05T15:32:07.201Z,12.90
2017-09-05T15:33:09.755Z,7.00
2017-09-05T15:34:16.320Z,21.30
2017-09-05T15:35:18.873Z,12.63
2017-09-05T15:36:21.603Z,17.73
2017-09-05T15:37:24.172Z,9.90
2017-09-05T15:38:26.652Z,13.07
2017-09-05T15:39:29.139Z,12.90
2017-09-05T15:40:35.833Z,13.50
2017-09-05T15:41:38.332Z,9.30
2017-09-05T15:42:41.573Z,5.03
2017-09-05T15:43:44.071Z,6.30
2017-09-05T15:44:46.584Z,9.60
2017-09-05T15:45:49.080Z,7.23
2017-09-05T15:46:51.576Z,8.87
2017-09-05T15:47:54.519Z,10.10
2017-09-05T15:48:57.033Z,6.07
2017-09-05T15:49:59.542Z,5.63
2017-09-05T15:51:02.038Z,5.80
2017-09-05T15:52:04.522Z,6.43